Time;durP1;ratioP1;P1;durP2;ratioP2;P2;SDS_P1;SDS_P2;PMS_P1;PMS_P2;Temp;Humidity;BMP_temperature;BMP_pressure;BME280_temperature;BME280_humidity;BME280_pressure;Samples;Min_cycle;Max_cycle;Signal;HPM_P1;HPM_P2
2022/11/01 00:04:01;;;;;;;8.60;4.70;;;;;;;;;;10397603;28;20033;-63
2022/11/01 00:09:01;;;;;;;23.40;5.47;;;;;;;;;;10407227;28;20485;-61
2022/11/01 00:14:02;;;;;;;9.10;4.95;;;;;;;;;;10407434;28;20033;-62
2022/11/01 00:19:02;;;;;;;15.70;5.28;;;;;;;;;;10407790;28;20155;-60
2022/11/01 00:24:02;;;;;;;10.73;4.70;;;;;;;;;;10407391;28;20515;-63
2022/11/01 00:29:03;;;;;;;12.27;5.18;;;;;;;;;;10395149;28;20489;-62
2022/11/01 00:34:05;;;;;;;9.52;4.75;;;;;;;;;;10385519;28;20380;-61
2022/11/01 00:39:06;;;;;;;7.47;4.25;;;;;;;;;;10398596;28;20037;-61
2022/11/01 00:44:06;;;;;;;9.73;4.93;;;;;;;;;;10392678;28;20030;-62
2022/11/01 00:49:06;;;;;;;9.90;5.60;;;;;;;;;;10403457;28;20480;-63
2022/11/01 00:54:07;;;;;;;9.27;5.20;;;;;;;;;;10399700;28;20339;-62
2022/11/01 00:59:07;;;;;;;14.82;5.57;;;;;;;;;;10370915;28;20572;-66
2022/11/01 01:04:07;;;;;;;7.22;4.60;;;;;;;;;;10398801;28;20036;-67
2022/11/01 01:09:09;;;;;;;13.35;5.13;;;;;;;;;;10382987;28;20120;-65
2022/11/01 01:14:10;;;;;;;13.55;5.18;;;;;;;;;;10405317;28;20057;-67
2022/11/01 01:19:10;;;;;;;14.50;5.55;;;;;;;;;;10397476;28;20129;-61
2022/11/01 01:24:11;;;;;;;8.60;4.32;;;;;;;;;;10402581;28;20030;-69
2022/11/01 01:29:11;;;;;;;13.00;5.63;;;;;;;;;;10405512;28;20030;-66
2022/11/01 01:34:11;;;;;;;9.83;4.27;;;;;;;;;;10405720;28;20030;-65
2022/11/01 01:39:12;;;;;;;8.75;4.20;;;;;;;;;;10405268;28;20021;-65
2022/11/01 01:44:30;;;;;;;9.25;4.57;;;;;;;;;;10410029;28;20083;-64
2022/11/01 01:49:30;;;;;;;10.73;4.90;;;;;;;;;;10413111;28;20353;-68
2022/11/01 01:54:31;;;;;;;10.27;4.55;;;;;;;;;;10411593;28;20030;-68
2022/11/01 01:59:31;;;;;;;18.05;4.60;;;;;;;;;;10405634;28;20050;-68
2022/11/01 02:04:40;;;;;;;12.25;4.15;;;;;;;;;;10387555;28;20033;-71
2022/11/01 02:09:40;;;;;;;;;;;;;;;;;;10394384;28;20052;-68
2022/11/01 02:14:42;;;;;;;5.22;3.72;;;;;;;;;;10406614;28;19947;-67
2022/11/01 02:19:46;;;;;;;6.55;3.90;;;;;;;;;;10409442;28;20041;-71
2022/11/01 02:25:09;;;;;;;7.63;4.35;;;;;;;;;;10399002;28;20188;-66
2022/11/01 02:30:12;;;;;;;8.68;3.83;;;;;;;;;;10409844;28;20022;-67
2022/11/01 02:35:28;;;;;;;7.60;3.70;;;;;;;;;;10403951;28;20112;-67
2022/11/01 02:40:40;;;;;;;11.48;4.30;;;;;;;;;;10403248;28;20033;-68
2022/11/01 02:45:41;;;;;;;6.05;3.72;;;;;;;;;;10392634;28;20041;-65
2022/11/01 02:50:45;;;;;;;5.05;3.97;;;;;;;;;;10397233;28;20029;-68
2022/11/01 02:55:45;;;;;;;5.55;3.83;;;;;;;;;;10410900;28;20530;-68
2022/11/01 03:00:45;;;;;;;6.55;3.88;;;;;;;;;;10383737;28;20049;-66
2022/11/01 03:05:56;;;;;;;6.88;3.95;;;;;;;;;;10410129;28;20120;-70
2022/11/01 03:11:05;;;;;;;7.15;4.15;;;;;;;;;;10398836;28;20503;-69
2022/11/01 03:16:24;;;;;;;6.47;3.63;;;;;;;;;;10399775;28;20037;-70
2022/11/01 03:21:25;;;;;;;7.32;3.92;;;;;;;;;;10379232;28;20036;-69
2022/11/01 03:26:28;;;;;;;6.90;3.88;;;;;;;;;;10390432;28;20030;-68
2022/11/01 03:31:30;;;;;;;5.80;3.83;;;;;;;;;;10408533;28;20036;-67
2022/11/01 03:36:33;;;;;;;6.40;3.88;;;;;;;;;;10404072;28;20493;-66
2022/11/01 03:41:34;;;;;;;7.55;3.78;;;;;;;;;;10408587;28;20037;-68
2022/11/01 03:46:35;;;;;;;6.65;4.13;;;;;;;;;;10407756;28;20040;-48
2022/11/01 03:51:35;;;;;;;4.55;3.55;;;;;;;;;;10383695;28;20050;-49
2022/11/01 03:56:39;;;;;;;4.43;3.30;;;;;;;;;;10408068;28;20887;-50
2022/11/01 04:01:39;;;;;;;5.75;3.60;;;;;;;;;;10394805;28;20080;-50
2022/11/01 04:06:39;;;;;;;8.03;3.40;;;;;;;;;;10407283;28;20056;-51
2022/11/01 04:11:40;;;;;;;4.07;2.97;;;;;;;;;;10407849;28;20044;-50
2022/11/01 04:21:59;;;;;;;5.40;3.55;;;;;;;;;;10395792;28;20060;-48
2022/11/01 04:26:59;;;;;;;5.70;3.53;;;;;;;;;;10398098;28;20440;-50
2022/11/01 04:32:01;;;;;;;6.13;3.60;;;;;;;;;;10406892;28;20477;-49
2022/11/01 04:37:01;;;;;;;4.80;3.28;;;;;;;;;;10406688;28;20396;-50
2022/11/01 04:42:01;;;;;;;5.28;3.30;;;;;;;;;;10407101;28;20025;-48
2022/11/01 04:47:01;;;;;;;4.85;3.25;;;;;;;;;;10406611;28;20476;-49
2022/11/01 04:52:02;;;;;;;8.65;3.28;;;;;;;;;;10406480;28;20030;-48
2022/11/01 04:57:03;;;;;;;3.93;3.00;;;;;;;;;;10406182;28;20030;-48
2022/11/01 05:02:03;;;;;;;3.58;2.95;;;;;;;;;;10393698;28;20241;-48
2022/11/01 05:07:03;;;;;;;4.40;3.15;;;;;;;;;;10406459;28;20323;-50
2022/11/01 05:12:04;;;;;;;4.15;2.75;;;;;;;;;;10385388;28;20026;-51
2022/11/01 05:17:04;;;;;;;6.90;3.03;;;;;;;;;;10407133;28;20106;-50
2022/11/01 05:22:04;;;;;;;7.20;3.25;;;;;;;;;;10394603;28;20074;-49
2022/11/01 05:27:04;;;;;;;4.20;2.90;;;;;;;;;;10404399;28;20346;-48
2022/11/01 05:32:05;;;;;;;4.10;2.60;;;;;;;;;;10413671;28;20045;-52
2022/11/01 05:37:05;;;;;;;3.63;2.63;;;;;;;;;;10413236;28;20025;-48
2022/11/01 05:42:05;;;;;;;5.32;3.50;;;;;;;;;;10413287;28;20523;-50
2022/11/01 05:47:06;;;;;;;8.65;3.25;;;;;;;;;;10412978;28;20405;-52
2022/11/01 05:52:06;;;;;;;4.47;3.00;;;;;;;;;;10400450;28;20045;-52
2022/11/01 05:57:06;;;;;;;4.77;2.70;;;;;;;;;;10412733;28;20041;-51
2022/11/01 06:02:06;;;;;;;5.40;2.90;;;;;;;;;;10404204;28;20243;-52
2022/11/01 06:07:07;;;;;;;4.45;3.00;;;;;;;;;;10400173;28;20034;-56
2022/11/01 06:12:07;;;;;;;6.20;3.33;;;;;;;;;;10393049;28;20037;-51
2022/11/01 06:17:11;;;;;;;10.52;2.80;;;;;;;;;;10406066;28;20025;-53
2022/11/01 06:22:11;;;;;;;3.15;2.53;;;;;;;;;;10405331;28;20029;-53
2022/11/01 06:27:12;;;;;;;3.45;2.55;;;;;;;;;;10398061;28;20519;-49
2022/11/01 06:32:12;;;;;;;4.07;3.42;;;;;;;;;;10411422;28;20037;-50
2022/11/01 06:37:12;;;;;;;3.72;2.85;;;;;;;;;;10398856;28;20036;-51
2022/11/01 06:42:12;;;;;;;3.03;2.40;;;;;;;;;;10410899;28;20037;-52
2022/11/01 06:47:13;;;;;;;4.45;2.67;;;;;;;;;;10410817;28;20129;-49
2022/11/01 06:52:13;;;;;;;3.58;2.55;;;;;;;;;;10410722;28;20037;-52
2022/11/01 06:57:13;;;;;;;3.47;2.75;;;;;;;;;;10417444;23;20060;-64
2022/11/01 07:02:13;;;;;;;3.42;2.40;;;;;;;;;;10401135;28;20037;-62
2022/11/01 07:07:14;;;;;;;3.10;2.60;;;;;;;;;;10398221;28;20033;-60
2022/11/01 07:12:14;;;;;;;3.40;2.60;;;;;;;;;;10404920;28;20045;-65
2022/11/01 07:17:14;;;;;;;3.22;2.42;;;;;;;;;;10409914;28;20034;-56
2022/11/01 07:22:14;;;;;;;3.00;2.53;;;;;;;;;;10409341;28;20029;-62
2022/11/01 07:27:15;;;;;;;3.17;2.42;;;;;;;;;;10398320;28;20021;-63
2022/11/01 07:32:15;;;;;;;2.70;2.25;;;;;;;;;;10396559;28;20033;-63
2022/11/01 07:37:15;;;;;;;3.30;2.50;;;;;;;;;;10402510;28;20145;-61
2022/11/01 07:42:15;;;;;;;4.88;2.42;;;;;;;;;;10396953;28;20469;-64
2022/11/01 07:47:16;;;;;;;2.92;2.25;;;;;;;;;;10408746;28;20506;-60
2022/11/01 07:52:16;;;;;;;2.97;2.42;;;;;;;;;;10397609;28;20049;-64
2022/11/01 07:57:16;;;;;;;3.05;2.15;;;;;;;;;;10405629;28;20034;-64
2022/11/01 08:02:17;;;;;;;4.38;2.40;;;;;;;;;;10407988;28;20036;-59
2022/11/01 08:07:17;;;;;;;3.60;2.60;;;;;;;;;;10408232;28;20583;-58
2022/11/01 08:12:18;;;;;;;2.92;2.13;;;;;;;;;;10423415;28;20138;-62
2022/11/01 08:17:18;;;;;;;2.83;2.38;;;;;;;;;;10396198;28;20465;-64
2022/11/01 08:22:18;;;;;;;3.33;2.30;;;;;;;;;;10407046;28;20034;-68
2022/11/01 08:27:19;;;;;;;4.03;2.55;;;;;;;;;;10397957;28;20453;-65
2022/11/01 08:32:20;;;;;;;3.85;2.33;;;;;;;;;;10394061;28;20432;-67
2022/11/01 08:37:20;;;;;;;2.35;2.15;;;;;;;;;;10406945;28;20461;-62
2022/11/01 08:42:20;;;;;;;2.70;2.25;;;;;;;;;;10407678;28;20037;-63
2022/11/01 08:47:21;;;;;;;2.97;1.80;;;;;;;;;;10390922;28;20033;-66
2022/11/01 08:52:21;;;;;;;3.67;2.50;;;;;;;;;;10412335;28;20037;-63
2022/11/01 08:57:21;;;;;;;2.23;2.00;;;;;;;;;;10414505;28;20046;-66
2022/11/01 09:02:22;;;;;;;5.38;2.08;;;;;;;;;;10414661;28;20082;-67
2022/11/01 09:07:22;;;;;;;4.93;1.90;;;;;;;;;;10414773;28;20031;-67
2022/11/01 09:12:22;;;;;;;11.02;2.30;;;;;;;;;;10404881;28;20175;-67
2022/11/01 09:17:22;;;;;;;2.30;1.80;;;;;;;;;;10410827;28;20041;-67
2022/11/01 09:22:23;;;;;;;5.13;2.17;;;;;;;;;;10411582;28;20026;-62
2022/11/01 09:27:23;;;;;;;2.93;2.10;;;;;;;;;;10404209;28;20030;-65
2022/11/01 09:32:26;;;;;;;7.07;2.40;;;;;;;;;;10404903;28;20486;-64
2022/11/01 09:37:26;;;;;;;11.38;2.50;;;;;;;;;;10409462;28;20064;-63
2022/11/01 09:42:31;;;;;;;16.58;5.20;;;;;;;;;;10397264;28;20109;-57
2022/11/01 09:47:32;;;;;;;16.23;6.35;;;;;;;;;;10412862;28;20031;-59
2022/11/01 09:52:32;;;;;;;11.35;6.45;;;;;;;;;;10423768;28;20029;-66
2022/11/01 09:57:34;;;;;;;15.15;6.35;;;;;;;;;;10396271;28;20046;-57
2022/11/01 10:02:53;;;;;;;13.63;6.88;;;;;;;;;;10397399;28;20030;-63
2022/11/01 10:07:56;;;;;;;19.30;6.10;;;;;;;;;;10412126;28;20040;-66
2022/11/01 10:13:08;;;;;;;17.63;6.97;;;;;;;;;;10411391;28;20117;-66
2022/11/01 10:18:15;;;;;;;25.58;7.90;;;;;;;;;;10396591;28;20029;-66
2022/11/01 10:23:16;;;;;;;16.08;7.15;;;;;;;;;;10409624;28;20508;-61
2022/11/01 10:28:45;;;;;;;11.30;6.05;;;;;;;;;;10393721;28;21071;-67
2022/11/01 10:34:06;;;;;;;17.20;7.38;;;;;;;;;;10399615;28;20048;-61
2022/11/01 10:39:25;;;;;;;25.98;7.55;;;;;;;;;;10394338;28;20038;-68
2022/11/01 10:44:25;;;;;;;;;;;;;;;;;;10400884;28;20091;-61
2022/11/01 10:49:28;;;;;;;14.00;6.38;;;;;;;;;;10406484;28;19967;-65
2022/11/01 10:54:29;;;;;;;22.95;6.40;;;;;;;;;;10406276;28;20591;-66
2022/11/01 10:59:32;;;;;;;14.43;5.97;;;;;;;;;;10410151;28;20072;-67
2022/11/01 11:04:33;;;;;;;16.35;5.45;;;;;;;;;;10403950;28;20493;-64
2022/11/01 11:09:33;;;;;;;14.77;5.50;;;;;;;;;;10405696;28;20080;-64
2022/11/01 11:14:34;;;;;;;19.20;5.35;;;;;;;;;;10404962;28;20453;-60
2022/11/01 11:19:38;;;;;;;15.32;4.80;;;;;;;;;;10394267;28;20025;-66
2022/11/01 11:24:40;;;;;;;17.33;5.18;;;;;;;;;;10406978;28;20021;-64
2022/11/01 11:29:57;;;;;;;16.02;5.80;;;;;;;;;;10391523;28;20544;-58
2022/11/01 11:35:01;;;;;;;12.07;5.32;;;;;;;;;;10392328;28;20528;-61
2022/11/01 11:40:02;;;;;;;9.50;4.45;;;;;;;;;;10398408;28;20121;-59
2022/11/01 11:45:17;;;;;;;14.83;5.43;;;;;;;;;;10407221;28;20108;-67
2022/11/01 11:50:18;;;;;;;37.80;6.03;;;;;;;;;;10398931;28;20033;-68
2022/11/01 11:55:38;;;;;;;9.95;4.40;;;;;;;;;;10402747;28;20079;-69
2022/11/01 12:00:42;;;;;;;11.93;4.50;;;;;;;;;;10404311;28;20044;-69
2022/11/01 12:06:12;;;;;;;9.25;4.93;;;;;;;;;;10407865;28;20075;-64
2022/11/01 12:11:13;;;;;;;11.95;4.40;;;;;;;;;;10390114;28;20041;-66
2022/11/01 12:16:15;;;;;;;14.32;4.40;;;;;;;;;;10407611;28;20064;-66
2022/11/01 12:21:16;;;;;;;14.25;4.43;;;;;;;;;;10408102;28;20112;-66
2022/11/01 12:26:17;;;;;;;15.52;3.45;;;;;;;;;;10399135;28;20485;-68
2022/11/01 12:31:19;;;;;;;10.35;3.88;;;;;;;;;;10398711;28;20030;-63
2022/11/01 12:36:23;;;;;;;20.30;4.50;;;;;;;;;;10401133;28;20018;-67
2022/11/01 12:41:29;;;;;;;9.00;4.07;;;;;;;;;;10401994;28;20037;-65
2022/11/01 12:46:33;;;;;;;8.05;3.80;;;;;;;;;;10400562;28;20061;-67
2022/11/01 12:51:38;;;;;;;9.02;3.95;;;;;;;;;;10394506;28;20145;-65
2022/11/01 12:56:39;;;;;;;10.10;3.38;;;;;;;;;;10406902;28;20030;-68
2022/11/01 13:02:05;;;;;;;10.20;3.30;;;;;;;;;;10406697;28;20505;-65
2022/11/01 13:07:10;;;;;;;5.95;3.67;;;;;;;;;;10379548;28;20362;-63
2022/11/01 13:12:25;;;;;;;5.60;3.28;;;;;;;;;;10406484;28;20029;-69
2022/11/01 13:17:32;;;;;;;8.35;3.63;;;;;;;;;;10398868;28;20030;-69
2022/11/01 13:22:53;;;;;;;7.18;3.35;;;;;;;;;;10367839;28;20230;-69
2022/11/01 13:27:56;;;;;;;8.40;3.33;;;;;;;;;;10395145;28;20030;-69
2022/11/01 13:33:10;;;;;;;7.00;3.42;;;;;;;;;;10406106;28;20025;-69
2022/11/01 13:38:19;;;;;;;11.23;3.17;;;;;;;;;;10394451;28;20036;-68
2022/11/01 13:43:33;;;;;;;14.20;3.65;;;;;;;;;;10413773;28;20029;-68
2022/11/01 13:48:52;;;;;;;6.40;3.03;;;;;;;;;;10413547;28;20084;-68
2022/11/01 13:54:03;;;;;;;10.38;3.70;;;;;;;;;;10401348;28;20365;-63
2022/11/01 13:59:13;;;;;;;7.47;3.00;;;;;;;;;;10412814;28;20412;-66
2022/11/01 14:04:17;;;;;;;5.90;2.90;;;;;;;;;;10411881;28;20041;-59
2022/11/01 14:09:26;;;;;;;8.75;3.30;;;;;;;;;;10410747;28;20035;-69
2022/11/01 14:14:30;;;;;;;6.20;3.33;;;;;;;;;;10408463;28;20030;-61
2022/11/01 14:19:30;;;;;;;5.57;3.00;;;;;;;;;;10394568;28;20034;-68
2022/11/01 14:24:30;;;;;;;16.33;3.88;;;;;;;;;;10405291;28;20025;-65
2022/11/01 14:29:34;;;;;;;8.63;3.50;;;;;;;;;;10401759;28;20022;-61
2022/11/01 14:34:35;;;;;;;8.68;3.53;;;;;;;;;;10410553;28;20473;-71
2022/11/01 14:39:42;;;;;;;9.95;3.60;;;;;;;;;;10409473;28;20374;-71
2022/11/01 14:44:45;;;;;;;8.63;2.75;;;;;;;;;;10407518;28;20029;-71
2022/11/01 14:49:47;;;;;;;6.13;2.95;;;;;;;;;;10410118;28;20112;-72
2022/11/01 14:54:53;;;;;;;9.07;3.10;;;;;;;;;;10410860;28;20035;-67
2022/11/01 14:59:54;;;;;;;10.38;3.53;;;;;;;;;;10410368;28;20405;-69
2022/11/01 15:04:58;;;;;;;13.93;3.40;;;;;;;;;;10397635;28;20044;-64
2022/11/01 15:10:00;;;;;;;7.90;3.15;;;;;;;;;;10410218;28;20084;-67
2022/11/01 15:15:00;;;;;;;5.47;2.88;;;;;;;;;;10410209;28;20032;-70
2022/11/01 15:20:07;;;;;;;5.93;2.85;;;;;;;;;;10410377;28;20393;-71
2022/11/01 15:25:17;;;;;;;5.22;2.85;;;;;;;;;;10409695;28;20110;-68
2022/11/01 15:30:20;;;;;;;5.95;3.00;;;;;;;;;;10400567;28;20488;-66
2022/11/01 15:35:22;;;;;;;6.57;3.00;;;;;;;;;;10409488;28;20388;-67
2022/11/01 15:40:25;;;;;;;5.63;3.00;;;;;;;;;;10409410;28;20473;-68
2022/11/01 15:45:28;;;;;;;7.13;2.70;;;;;;;;;;10409046;28;20021;-67
2022/11/01 15:50:31;;;;;;;8.75;2.95;;;;;;;;;;10400864;28;20485;-48
2022/11/01 15:55:33;;;;;;;5.03;3.08;;;;;;;;;;10407805;28;20033;-55
2022/11/01 16:00:40;;;;;;;6.93;3.13;;;;;;;;;;10407802;28;20046;-50
2022/11/01 16:05:45;;;;;;;4.57;2.75;;;;;;;;;;10408044;28;20067;-48
2022/11/01 16:10:46;;;;;;;4.57;2.70;;;;;;;;;;10408947;28;20029;-46
2022/11/01 16:16:01;;;;;;;8.73;2.92;;;;;;;;;;10407787;28;20056;-52
2022/11/01 16:21:06;;;;;;;9.07;3.50;;;;;;;;;;10397902;28;20018;-50
2022/11/01 16:26:07;;;;;;;4.13;2.65;;;;;;;;;;10394966;28;20075;-46
2022/11/01 16:31:21;;;;;;;5.40;2.65;;;;;;;;;;10403821;28;20496;-47
2022/11/01 16:36:21;;;;;;;6.65;2.78;;;;;;;;;;10393937;28;20105;-50
2022/11/01 16:41:23;;;;;;;4.30;2.90;;;;;;;;;;10392729;28;20033;-53
2022/11/01 16:46:24;;;;;;;6.32;2.97;;;;;;;;;;10400840;28;20436;-46
2022/11/01 16:51:27;;;;;;;4.82;2.75;;;;;;;;;;10406557;28;20034;-51
2022/11/01 16:56:29;;;;;;;5.03;2.67;;;;;;;;;;10406712;28;20452;-50
2022/11/01 17:01:29;;;;;;;5.72;3.47;;;;;;;;;;10407357;28;20083;-47
2022/11/01 17:06:30;;;;;;;7.75;3.10;;;;;;;;;;10406879;28;20142;-66
2022/11/01 17:11:30;;;;;;;5.45;3.15;;;;;;;;;;10406673;28;20033;-63
2022/11/01 17:16:31;;;;;;;6.05;3.08;;;;;;;;;;10429869;28;20025;-50
2022/11/01 17:21:35;;;;;;;6.70;3.08;;;;;;;;;;10401561;28;20103;-46
2022/11/01 17:26:35;;;;;;;4.45;2.70;;;;;;;;;;10392385;28;20026;-49
2022/11/01 17:31:36;;;;;;;3.88;2.70;;;;;;;;;;10414066;28;20381;-46
2022/11/01 17:36:37;;;;;;;9.32;3.20;;;;;;;;;;10413575;28;20025;-46
2022/11/01 17:41:37;;;;;;;8.77;3.47;;;;;;;;;;10413979;28;20027;-47
2022/11/01 17:46:38;;;;;;;5.33;3.23;;;;;;;;;;10413502;28;20495;-47
2022/11/01 17:51:38;;;;;;;7.00;3.55;;;;;;;;;;10413428;28;20030;-46
2022/11/01 17:56:39;;;;;;;7.28;3.60;;;;;;;;;;10412096;28;20358;-48
2022/11/01 18:01:39;;;;;;;6.40;3.30;;;;;;;;;;10411962;28;20472;-46
2022/11/01 18:06:40;;;;;;;6.32;3.17;;;;;;;;;;10408884;28;20521;-46
2022/11/01 18:11:44;;;;;;;7.88;3.53;;;;;;;;;;10400948;28;20045;-47
2022/11/01 18:16:48;;;;;;;5.22;3.30;;;;;;;;;;10399106;28;20451;-46
2022/11/01 18:22:09;;;;;;;6.38;3.47;;;;;;;;;;10410161;28;20032;-46
2022/11/01 18:27:10;;;;;;;7.38;3.72;;;;;;;;;;10397015;28;20124;-47
2022/11/01 18:32:40;;;;;;;7.43;3.58;;;;;;;;;;10397567;28;20061;-45
2022/11/01 18:37:44;;;;;;;11.98;4.35;;;;;;;;;;10396521;28;20064;-49
2022/11/01 18:42:45;;;;;;;11.30;4.25;;;;;;;;;;10410844;28;20370;-46
2022/11/01 18:47:49;;;;;;;16.38;4.55;;;;;;;;;;10410286;28;20025;-46
2022/11/01 18:52:55;;;;;;;18.33;4.38;;;;;;;;;;10408531;28;20489;-47
2022/11/01 18:57:55;;;;;;;13.73;4.38;;;;;;;;;;10408556;28;20038;-49
2022/11/01 19:02:59;;;;;;;11.70;4.10;;;;;;;;;;10408061;28;20028;-51
2022/11/01 19:08:01;;;;;;;17.88;5.00;;;;;;;;;;10410568;28;20499;-47
2022/11/01 19:13:01;;;;;;;9.50;4.47;;;;;;;;;;10409098;28;20021;-49
2022/11/01 19:18:19;;;;;;;11.40;4.72;;;;;;;;;;10410196;28;20388;-47
2022/11/01 19:23:28;;;;;;;12.48;4.68;;;;;;;;;;10388919;28;20037;-47
2022/11/01 19:28:34;;;;;;;14.40;5.15;;;;;;;;;;10385051;28;20037;-46
2022/11/01 19:33:36;;;;;;;12.77;4.85;;;;;;;;;;10396061;28;20041;-46
2022/11/01 19:38:42;;;;;;;7.45;4.25;;;;;;;;;;10385236;28;20029;-46
2022/11/01 19:43:42;;;;;;;14.02;4.45;;;;;;;;;;10403910;28;20040;-46
2022/11/01 19:48:42;;;;;;;9.13;4.33;;;;;;;;;;10389739;28;20037;-46
2022/11/01 19:53:44;;;;;;;9.53;4.73;;;;;;;;;;10402608;28;20645;-46
2022/11/01 19:58:50;;;;;;;10.00;4.55;;;;;;;;;;10396679;28;20045;-47
2022/11/01 20:04:09;;;;;;;9.07;4.00;;;;;;;;;;10397375;28;20086;-46
2022/11/01 20:09:18;;;;;;;7.53;4.20;;;;;;;;;;10398391;28;20033;-45
2022/11/01 20:14:19;;;;;;;11.85;5.45;;;;;;;;;;10393768;28;20025;-45
2022/11/01 20:19:19;;;;;;;15.27;5.78;;;;;;;;;;10392681;28;20298;-47
2022/11/01 20:24:19;;;;;;;15.38;5.28;;;;;;;;;;10395325;28;20029;-47
2022/11/01 20:29:19;;;;;;;13.60;5.30;;;;;;;;;;10404192;28;20025;-47
2022/11/01 20:34:20;;;;;;;15.73;5.73;;;;;;;;;;10391808;28;20041;-50
2022/11/01 20:39:20;;;;;;;13.15;5.63;;;;;;;;;;10408004;28;20061;-50
2022/11/01 20:44:21;;;;;;;13.30;5.72;;;;;;;;;;10406895;28;20187;-48
2022/11/01 20:49:21;;;;;;;14.25;5.63;;;;;;;;;;10415568;28;20021;-46
2022/11/01 20:54:21;;;;;;;14.00;5.38;;;;;;;;;;10412123;28;20030;-49
2022/11/01 20:59:21;;;;;;;9.52;5.03;;;;;;;;;;10404348;28;20042;-48
2022/11/01 21:04:22;;;;;;;11.43;5.20;;;;;;;;;;10412860;28;20284;-47
2022/11/01 21:09:29;;;;;;;11.63;5.35;;;;;;;;;;10414489;28;20037;-48
2022/11/01 21:14:35;;;;;;;14.30;5.20;;;;;;;;;;10414044;28;20480;-47
2022/11/01 21:19:36;;;;;;;9.00;5.85;;;;;;;;;;10413731;28;20116;-46
2022/11/01 21:24:41;;;;;;;17.27;5.90;;;;;;;;;;10413974;28;20422;-46
2022/11/01 21:29:45;;;;;;;11.23;5.47;;;;;;;;;;10405209;28;20025;-48
2022/11/01 21:34:47;;;;;;;12.77;5.72;;;;;;;;;;10413681;28;20030;-47
2022/11/01 21:39:52;;;;;;;7.90;5.32;;;;;;;;;;10387302;28;20271;-47
2022/11/01 21:44:54;;;;;;;11.07;5.32;;;;;;;;;;10406577;28;20044;-48
2022/11/01 21:49:54;;;;;;;8.15;5.18;;;;;;;;;;10400783;28;20101;-46
2022/11/01 21:54:54;;;;;;;9.30;5.53;;;;;;;;;;10406199;28;20562;-47
2022/11/01 21:59:55;;;;;;;9.30;5.88;;;;;;;;;;10411213;28;20064;-47
2022/11/01 22:04:55;;;;;;;9.80;6.05;;;;;;;;;;10412766;28;20100;-46
2022/11/01 22:09:55;;;;;;;15.25;6.55;;;;;;;;;;10412293;28;20037;-46
2022/11/01 22:14:55;;;;;;;18.85;7.20;;;;;;;;;;10410307;28;20439;-48
2022/11/01 22:19:56;;;;;;;14.20;6.80;;;;;;;;;;10399776;28;20044;-46
2022/11/01 22:24:56;;;;;;;14.88;6.72;;;;;;;;;;10411352;28;20021;-47
2022/11/01 22:29:56;;;;;;;11.30;6.47;;;;;;;;;;10406562;28;20587;-48
2022/11/01 22:34:57;;;;;;;18.67;6.88;;;;;;;;;;10410315;28;20029;-47
2022/11/01 22:39:57;;;;;;;14.50;7.43;;;;;;;;;;10409330;28;20037;-46
2022/11/01 22:44:57;;;;;;;12.00;6.25;;;;;;;;;;10410896;28;20518;-50
2022/11/01 22:50:00;;;;;;;15.27;7.10;;;;;;;;;;10410606;28;20033;-48
2022/11/01 22:55:06;;;;;;;18.00;6.63;;;;;;;;;;10402957;28;20025;-62
2022/11/01 23:00:25;;;;;;;11.13;6.68;;;;;;;;;;10409959;28;20072;-47
2022/11/01 23:05:26;;;;;;;12.35;6.70;;;;;;;;;;10409618;28;20087;-63
2022/11/01 23:10:30;;;;;;;13.20;6.95;;;;;;;;;;10408521;28;20075;-57
2022/11/01 23:15:31;;;;;;;11.48;6.70;;;;;;;;;;10404506;28;20401;-60
2022/11/01 23:20:32;;;;;;;9.93;6.50;;;;;;;;;;10405995;28;20089;-65
2022/11/01 23:25:32;;;;;;;13.68;6.70;;;;;;;;;;10407753;28;20089;-63
2022/11/01 23:30:32;;;;;;;15.10;7.50;;;;;;;;;;10400238;28;20025;-66
2022/11/01 23:35:33;;;;;;;13.13;7.13;;;;;;;;;;10408322;28;20022;-66
2022/11/01 23:40:33;;;;;;;21.10;7.63;;;;;;;;;;10409151;28;20021;-61
2022/11/01 23:45:33;;;;;;;12.23;7.27;;;;;;;;;;10402912;28;20082;-67
2022/11/01 23:50:34;;;;;;;12.57;7.00;;;;;;;;;;10398920;28;20132;-53
2022/11/01 23:55:45;;;;;;;13.07;7.53;;;;;;;;;;10396719;28;20640;-73
